createdAt,value
2018-12-17T00:04:05.515Z,0.93
2018-12-17T00:09:08.737Z,1.13
2018-12-17T00:14:11.335Z,0.94
2018-12-17T00:19:14.050Z,1.04
2018-12-17T00:24:17.102Z,1.03
2018-12-17T00:29:19.726Z,1.05
2018-12-17T00:34:22.320Z,1.08
2018-12-17T00:39:25.126Z,1.19
2018-12-17T00:44:27.731Z,1.12
2018-12-17T00:49:30.275Z,0.95
2018-12-17T00:54:32.913Z,1.06
2018-12-17T00:59:35.617Z,1.14
2018-12-17T01:04:38.786Z,1.13
2018-12-17T01:09:42.311Z,1.21
2018-12-17T01:14:45.687Z,1.12
2018-12-17T01:19:48.494Z,1.08
2018-12-17T01:24:51.844Z,1.07
2018-12-17T01:29:54.544Z,1.19
2018-12-17T01:34:57.451Z,1.06
2018-12-17T01:40:00.216Z,1.12
2018-12-17T01:45:03.807Z,1.18
2018-12-17T01:50:06.575Z,1.21
2018-12-17T01:55:09.170Z,1.18
2018-12-17T02:00:12.501Z,1.22
2018-12-17T02:05:15.165Z,1.25
2018-12-17T02:10:17.790Z,1.20
2018-12-17T02:15:20.485Z,1.24
2018-12-17T02:20:23.283Z,1.21
2018-12-17T02:25:25.957Z,1.36
2018-12-17T02:30:28.531Z,1.31
2018-12-17T02:35:31.117Z,1.26
2018-12-17T02:40:33.693Z,1.31
2018-12-17T02:45:36.363Z,1.34
2018-12-17T02:50:39.114Z,1.29
2018-12-17T02:55:41.705Z,1.30
2018-12-17T03:00:44.337Z,1.35
2018-12-17T03:05:47.021Z,1.58
2018-12-17T03:10:49.717Z,1.39
2018-12-17T03:15:52.546Z,1.40
2018-12-17T03:20:55.350Z,1.51
2018-12-17T03:25:57.940Z,1.58
2018-12-17T03:31:00.555Z,1.47
2018-12-17T03:36:03.339Z,1.46
2018-12-17T03:41:06.758Z,1.52
2018-12-17T03:46:09.350Z,1.42
2018-12-17T03:51:12.050Z,1.54
2018-12-17T03:56:14.637Z,1.59
2018-12-17T04:01:17.374Z,1.52
2018-12-17T04:06:20.251Z,1.61
2018-12-17T04:11:23.417Z,1.64
2018-12-17T04:16:25.988Z,1.61
2018-12-17T04:21:28.671Z,1.73
2018-12-17T04:26:31.437Z,1.65
2018-12-17T04:31:34.137Z,1.70
2018-12-17T04:36:36.777Z,1.78
2018-12-17T04:41:39.347Z,1.79
2018-12-17T04:46:42.614Z,1.83
2018-12-17T04:51:45.199Z,1.97
2018-12-17T04:56:47.931Z,1.94
2018-12-17T05:01:50.574Z,1.76
2018-12-17T05:06:53.175Z,1.81
2018-12-17T05:11:55.908Z,1.84
2018-12-17T05:16:59.038Z,1.83
2018-12-17T05:22:01.737Z,1.90
2018-12-17T05:27:04.583Z,1.95
2018-12-17T05:32:07.381Z,1.89
2018-12-17T05:37:10.707Z,1.94
2018-12-17T05:42:14.329Z,1.95
2018-12-17T05:47:16.900Z,2.02
2018-12-17T05:52:19.526Z,2.06
2018-12-17T05:57:22.347Z,2.03
2018-12-17T06:02:25.030Z,2.09
2018-12-17T06:07:27.601Z,2.13
2018-12-17T06:12:30.385Z,2.11
2018-12-17T06:17:33.202Z,2.09
2018-12-17T06:22:35.856Z,2.20
2018-12-17T06:27:38.731Z,2.11
2018-12-17T06:32:41.460Z,2.06
2018-12-17T06:37:44.183Z,2.22
2018-12-17T06:42:46.780Z,2.18
2018-12-17T06:47:49.424Z,2.24
2018-12-17T06:52:52.113Z,2.25
2018-12-17T06:57:55.136Z,2.29
2018-12-17T07:02:57.844Z,2.17
2018-12-17T07:08:00.421Z,2.22
2018-12-17T07:13:03.782Z,2.41
2018-12-17T07:18:06.372Z,2.29
2018-12-17T07:23:09.438Z,2.34
2018-12-17T07:28:12.116Z,2.30
2018-12-17T07:33:14.805Z,2.43
2018-12-17T07:38:17.444Z,2.49
2018-12-17T07:43:20.025Z,2.46
2018-12-17T07:48:22.698Z,2.53
2018-12-17T07:53:25.593Z,2.47
2018-12-17T07:58:29.027Z,2.43
2018-12-17T08:03:31.587Z,2.53
2018-12-17T08:08:35.520Z,2.65
2018-12-17T08:13:38.644Z,2.58
2018-12-17T08:18:41.469Z,2.61
2018-12-17T08:23:44.157Z,2.67
2018-12-17T08:28:46.867Z,2.74
2018-12-17T08:33:49.661Z,2.78
2018-12-17T08:38:52.444Z,2.80
2018-12-17T08:43:55.358Z,2.78
2018-12-17T08:48:58.085Z,2.91
2018-12-17T08:54:01.404Z,2.90
2018-12-17T08:59:04.970Z,2.84
2018-12-17T09:04:07.890Z,2.96
2018-12-17T09:09:10.800Z,2.88
2018-12-17T09:14:13.415Z,3.04
2018-12-17T09:19:16.022Z,3.05
2018-12-17T09:24:20.222Z,2.98
2018-12-17T09:29:22.837Z,3.08
2018-12-17T09:34:26.435Z,3.12
2018-12-17T09:39:29.033Z,2.96
2018-12-17T09:44:33.217Z,3.08
2018-12-17T09:49:36.054Z,3.11
2018-12-17T09:54:39.522Z,3.34
2018-12-17T09:59:42.142Z,3.39
2018-12-17T10:04:44.731Z,3.38
2018-12-17T10:09:47.559Z,3.37
2018-12-17T10:14:50.207Z,3.42
2018-12-17T10:19:52.754Z,3.42
2018-12-17T10:24:55.464Z,3.39
2018-12-17T10:29:58.775Z,3.43
2018-12-17T10:35:01.576Z,3.36
2018-12-17T10:40:05.815Z,3.48
2018-12-17T10:45:08.712Z,3.50
2018-12-17T10:50:11.511Z,3.46
2018-12-17T10:55:14.849Z,3.52
2018-12-17T11:00:23.254Z,3.64
2018-12-17T11:05:26.363Z,3.64
2018-12-17T11:10:29.342Z,3.65
2018-12-17T11:15:32.537Z,3.72
2018-12-17T11:20:35.376Z,3.73
2018-12-17T11:25:37.984Z,3.65
2018-12-17T11:30:46.368Z,3.77
2018-12-17T11:35:45.921Z,3.81
2018-12-17T11:40:48.566Z,3.67
2018-12-17T11:45:51.192Z,3.75
2018-12-17T11:50:53.813Z,3.74
2018-12-17T11:55:56.649Z,3.99
2018-12-17T12:01:01.285Z,4.14
2018-12-17T12:06:04.101Z,4.23
2018-12-17T12:11:06.918Z,4.31
2018-12-17T12:16:10.090Z,4.45
2018-12-17T12:21:12.725Z,4.57
2018-12-17T12:26:15.463Z,4.56
2018-12-17T12:31:18.137Z,4.49
2018-12-17T12:36:20.953Z,4.53
2018-12-17T12:41:23.771Z,4.61
2018-12-17T12:46:26.589Z,4.72
2018-12-17T12:51:32.661Z,4.58
2018-12-17T12:56:34.011Z,4.80
2018-12-17T13:01:36.593Z,4.63
2018-12-17T13:06:39.403Z,4.66
2018-12-17T13:11:41.990Z,4.73
2018-12-17T13:16:44.678Z,4.81
2018-12-17T13:21:47.452Z,4.70
2018-12-17T13:26:50.185Z,4.71
2018-12-17T13:31:52.818Z,4.71
2018-12-17T13:36:56.039Z,4.49
2018-12-17T13:41:58.666Z,4.48
2018-12-17T13:47:01.273Z,4.54
2018-12-17T13:52:09.527Z,4.43
2018-12-17T13:57:12.248Z,4.39
2018-12-17T14:02:14.907Z,4.46
2018-12-17T14:07:17.502Z,4.42
2018-12-17T14:12:20.070Z,4.41
2018-12-17T14:17:28.332Z,4.44
2018-12-17T14:22:30.928Z,4.38
2018-12-17T14:27:33.798Z,4.16
2018-12-17T14:32:36.625Z,4.12
2018-12-17T14:37:41.142Z,4.07
2018-12-17T14:42:43.857Z,3.99
2018-12-17T14:47:46.417Z,4.08
2018-12-17T14:52:49.673Z,3.91
2018-12-17T14:57:52.487Z,3.87
2018-12-17T15:02:55.672Z,3.84
2018-12-17T15:07:58.323Z,3.78
2018-12-17T15:13:01.748Z,3.74
2018-12-17T15:18:05.204Z,3.65
2018-12-17T15:23:08.431Z,3.54
2018-12-17T15:28:11.780Z,3.55
2018-12-17T15:33:14.378Z,3.57
2018-12-17T15:38:17.612Z,3.66
2018-12-17T15:43:20.393Z,3.75
2018-12-17T15:48:23.339Z,3.59
2018-12-17T15:53:26.043Z,3.69
2018-12-17T15:58:28.789Z,3.70
2018-12-17T16:03:32.089Z,3.84
2018-12-17T16:08:34.773Z,3.64
2018-12-17T16:13:37.664Z,3.54
2018-12-17T16:18:42.028Z,3.62
2018-12-17T16:23:45.085Z,3.63
2018-12-17T16:28:47.888Z,3.49
2018-12-17T16:33:51.301Z,3.54
2018-12-17T16:38:54.600Z,3.69
2018-12-17T16:43:57.582Z,3.71
2018-12-17T16:49:00.252Z,3.53
2018-12-17T16:54:03.020Z,3.61
2018-12-17T16:59:06.328Z,3.66
2018-12-17T17:04:09.010Z,3.61
2018-12-17T17:09:11.823Z,3.53
2018-12-17T17:14:14.575Z,3.57
2018-12-17T17:19:17.338Z,3.50
2018-12-17T17:24:19.884Z,3.77
2018-12-17T17:29:22.590Z,3.50
2018-12-17T17:34:25.298Z,3.42
2018-12-17T17:39:27.859Z,3.39
2018-12-17T17:44:30.464Z,3.37
2018-12-17T17:49:33.199Z,3.34
2018-12-17T17:54:36.096Z,3.50
2018-12-17T17:59:38.807Z,3.52
2018-12-17T18:04:41.356Z,3.65
2018-12-17T18:09:44.843Z,3.58
2018-12-17T18:14:47.521Z,3.67
2018-12-17T18:19:50.120Z,3.53
2018-12-17T18:24:53.040Z,3.57
2018-12-17T18:29:56.612Z,3.48
2018-12-17T18:34:59.980Z,3.59
2018-12-17T18:40:02.840Z,3.59
2018-12-17T18:45:07.502Z,3.59
2018-12-17T18:50:10.104Z,3.62
2018-12-17T18:55:12.809Z,3.71
2018-12-17T19:00:15.468Z,3.63
2018-12-17T19:05:18.105Z,3.64
2018-12-17T19:10:20.692Z,3.60
2018-12-17T19:15:23.461Z,3.69
2018-12-17T19:20:26.163Z,3.66
2018-12-17T19:25:28.801Z,3.81
2018-12-17T19:30:31.442Z,3.80
2018-12-17T19:35:34.118Z,3.79
2018-12-17T19:40:36.951Z,3.86
2018-12-17T19:45:39.756Z,3.86
2018-12-17T19:50:42.348Z,3.91
2018-12-17T19:55:45.050Z,3.87
2018-12-17T20:00:47.678Z,3.86
2018-12-17T20:05:50.304Z,3.90
2018-12-17T20:10:53.181Z,3.91
2018-12-17T20:15:56.008Z,4.03
2018-12-17T20:20:59.207Z,3.92
2018-12-17T20:26:01.864Z,3.91
2018-12-17T20:31:04.655Z,3.90
2018-12-17T20:36:07.285Z,3.95
2018-12-17T20:41:09.901Z,3.98
2018-12-17T20:46:13.410Z,4.02
2018-12-17T20:51:16.045Z,4.03
2018-12-17T20:56:18.723Z,4.06
2018-12-17T21:01:22.087Z,3.99
2018-12-17T21:06:24.825Z,3.98
2018-12-17T21:16:26.759Z,4.05
2018-12-17T21:21:29.365Z,4.08
2018-12-17T21:26:31.989Z,4.09
2018-12-17T21:31:34.606Z,4.16
2018-12-17T21:36:37.464Z,4.07
2018-12-17T21:41:40.249Z,4.27
2018-12-17T21:46:42.834Z,4.14
2018-12-17T21:51:45.559Z,4.18
2018-12-17T21:56:48.252Z,4.17
2018-12-17T22:01:50.854Z,4.19
2018-12-17T22:06:53.396Z,4.27
2018-12-17T22:11:56.122Z,4.14
2018-12-17T22:16:59.239Z,4.13
2018-12-17T22:22:01.882Z,4.19
2018-12-17T22:27:04.576Z,4.51
2018-12-17T22:32:07.338Z,4.13
2018-12-17T22:37:09.892Z,4.15
2018-12-17T22:42:13.299Z,4.11
2018-12-17T22:47:16.043Z,4.04
2018-12-17T22:52:18.847Z,4.07
2018-12-17T22:57:21.525Z,4.16
2018-12-17T23:02:24.292Z,4.06
2018-12-17T23:07:26.894Z,4.04
2018-12-17T23:12:42.043Z,4.02
2018-12-17T23:17:44.142Z,4.10
2018-12-17T23:22:46.977Z,4.12
2018-12-17T23:27:50.448Z,4.06
2018-12-17T23:32:53.144Z,4.02
2018-12-17T23:37:56.342Z,4.08
2018-12-17T23:42:59.052Z,4.08
2018-12-17T23:48:01.665Z,3.96
2018-12-17T23:53:04.332Z,4.02
2018-12-17T23:58:06.960Z,3.96
